Time;durP1;ratioP1;P1;durP2;ratioP2;P2;SDS_P1;SDS_P2;PMS_P1;PMS_P2;Temp;Humidity;BMP_temperature;BMP_pressure;BME280_temperature;BME280_humidity;BME280_pressure;Samples;Min_cycle;Max_cycle;Signal;HPM_P1;HPM_P2
2021/12/17 00:06:59;;;;;;;17.45;6.20;;;;;;;6.48;93.28;104179.81;4998111;28;98058;-34
2021/12/17 00:09:24;;;;;;;13.25;6.22;;;;;;;6.50;93.27;104178.06;4999303;28;96499;-34
2021/12/17 00:11:50;;;;;;;16.20;5.75;;;;;;;6.52;93.34;104179.88;4999010;28;96503;-34
2021/12/17 00:14:25;;;;;;;18.23;6.53;;;;;;;6.53;93.10;104188.84;4998505;28;97972;-34
2021/12/17 00:16:50;;;;;;;10.30;4.68;;;;;;;6.47;93.23;104173.53;4996934;28;101256;-34
2021/12/17 00:19:25;;;;;;;15.27;5.97;;;;;;;6.40;93.09;104173.47;4998512;28;96734;-34
2021/12/17 00:49:26;;;;;;;10.43;4.15;;;;;;;6.47;92.91;104187.00;5015100;28;97134;-34
2021/12/17 00:54:37;;;;;;;14.38;5.47;;;;;;;6.48;93.24;104198.66;5005246;28;96740;-34
2021/12/17 00:57:11;;;;;;;7.28;3.42;;;;;;;6.49;92.99;104205.88;4996981;28;99308;-34
2021/12/17 00:59:38;;;;;;;4.50;2.33;;;;;;;6.42;92.71;104193.25;4998022;28;97412;-34
2021/12/17 01:02:10;;;;;;;9.60;3.10;;;;;;;6.46;92.70;104189.66;4996720;28;96728;-34
2021/12/17 01:04:39;;;;;;;6.20;2.20;;;;;;;6.44;93.02;104175.31;4997202;28;96710;-34
2021/12/17 01:07:06;;;;;;;6.05;2.17;;;;;;;6.47;92.91;104188.81;4996296;28;101225;-34
2021/12/17 01:09:32;;;;;;;4.13;2.08;;;;;;;6.48;92.59;104193.28;4997380;28;97423;-34
2021/12/17 01:11:58;;;;;;;8.82;3.00;;;;;;;6.40;93.10;104173.47;4996150;28;96513;-34
2021/12/17 01:14:26;;;;;;;6.80;2.88;;;;;;;6.40;92.94;104174.38;4996560;28;96869;-34
2021/12/17 01:16:53;;;;;;;5.78;2.80;;;;;;;6.47;92.96;104180.72;4995992;28;100509;-34
2021/12/17 01:19:44;;;;;;;6.75;2.97;;;;;;;6.40;92.73;104163.59;4996194;28;101009;-34
2021/12/17 01:22:43;;;;;;;3.30;1.85;;;;;;;6.42;92.82;104161.81;4997616;28;96692;-34
2021/12/17 01:25:06;;;;;;;4.15;1.85;;;;;;;6.41;92.66;104164.50;4997567;28;96644;-34
2021/12/17 01:35:45;;;;;;;5.00;2.38;;;;;;;6.39;92.96;104177.97;4998137;28;96520;-34
2021/12/17 01:39:33;;;;;;;7.68;2.63;;;;;;;6.43;93.01;104177.09;4996650;28;97355;-34
2021/12/17 01:43:50;;;;;;;10.48;2.15;;;;;;;6.46;92.78;104182.53;4996142;28;96616;-34
2021/12/17 01:46:25;;;;;;;3.60;2.38;;;;;;;6.43;93.38;104181.56;4997339;28;96847;-34
2021/12/17 01:59:51;;;;;;;13.15;2.88;;;;;;;6.40;93.53;104168.09;4997254;28;97065;-34
2021/12/17 02:02:16;;;;;;;7.05;1.98;;;;;;;6.47;93.30;104181.63;4996768;28;97814;-34
2021/12/17 02:04:43;;;;;;;6.38;2.55;;;;;;;6.46;93.53;104176.22;4996995;28;96480;-34
2021/12/17 02:07:09;;;;;;;5.65;2.65;;;;;;;6.44;93.44;104175.31;4995921;28;96827;-34
2021/12/17 02:28:47;;;;;;;11.27;2.08;;;;;;;6.46;93.66;104168.13;4997286;28;96479;-34
2021/12/17 02:31:26;;;;;;;3.20;1.98;;;;;;;6.48;93.80;104172.63;4995979;28;97959;-34
2021/12/17 02:33:53;;;;;;;14.48;3.00;;;;;;;6.42;93.48;104161.81;4996825;28;97826;-34
2021/12/17 02:36:23;;;;;;;3.42;1.70;;;;;;;6.49;93.50;104168.19;4995346;28;96626;-34
2021/12/17 02:38:49;;;;;;;3.83;1.88;;;;;;;6.48;93.60;104158.28;4997024;28;97022;-34
2021/12/17 02:46:42;;;;;;;3.05;1.90;;;;;;;6.35;93.71;104147.41;4997092;28;96608;-34
2021/12/17 02:49:08;;;;;;;6.32;2.15;;;;;;;6.44;94.03;104159.16;4996846;28;96768;-34
2021/12/17 02:51:33;;;;;;;5.57;2.25;;;;;;;6.44;93.63;104153.78;4996204;28;101843;-34
2021/12/17 02:53:59;;;;;;;8.02;2.13;;;;;;;6.50;93.86;104164.59;4996136;28;97763;-34
2021/12/17 02:56:25;;;;;;;7.65;2.38;;;;;;;6.50;93.95;104170.88;4993850;28;96762;-34
2021/12/17 02:58:51;;;;;;;5.20;2.28;;;;;;;6.50;93.65;104169.97;4996599;28;96727;-34
2021/12/17 03:01:17;;;;;;;4.85;2.22;;;;;;;6.48;93.70;104169.94;4994673;28;100752;-34
2021/12/17 03:03:48;;;;;;;6.30;2.83;;;;;;;6.46;93.96;104165.44;4996097;28;101402;-34
2021/12/17 03:06:14;;;;;;;8.30;2.13;;;;;;;6.45;94.38;104161.84;4998532;28;96669;-34
2021/12/17 03:08:40;;;;;;;5.63;2.20;;;;;;;6.44;94.31;104153.78;4998569;28;96854;-34
2021/12/17 03:11:05;;;;;;;10.38;3.58;;;;;;;6.49;94.46;104165.50;4999241;28;99080;-34
2021/12/17 03:13:34;;;;;;;7.65;2.90;;;;;;;6.51;94.28;104163.72;4999971;28;97269;-34
2021/12/17 03:16:10;;;;;;;6.35;2.10;;;;;;;6.41;94.07;104148.34;4998513;28;96531;-34
2021/12/17 03:19:00;;;;;;;7.75;3.05;;;;;;;6.51;94.02;104167.31;4998360;28;96617;-34
2021/12/17 03:24:10;;;;;;;9.38;2.85;;;;;;;6.47;94.49;104151.09;4999685;28;97016;-34
2021/12/17 03:26:36;;;;;;;6.13;2.80;;;;;;;6.46;94.31;104151.97;4999542;28;96488;-34
2021/12/17 03:29:06;;;;;;;9.20;2.75;;;;;;;6.48;94.50;104158.28;4999924;28;96763;-34
2021/12/17 03:31:32;;;;;;;9.57;3.15;;;;;;;6.56;94.17;104175.44;4997716;28;101788;-34
2021/12/17 03:36:33;;;;;;;6.93;3.15;;;;;;;6.57;94.47;104177.22;4998008;28;96732;-34
2021/12/17 03:38:58;;;;;;;16.50;3.33;;;;;;;6.58;94.00;104182.63;4999881;28;96749;-34
2021/12/17 03:41:33;;;;;;;9.80;3.47;;;;;;;6.57;94.40;104171.84;4998868;28;104970;-34
2021/12/17 03:43:58;;;;;;;29.38;3.97;;;;;;;6.56;94.95;104170.03;4999222;28;97841;-34
2021/12/17 03:46:24;;;;;;;16.67;5.15;;;;;;;6.58;94.98;104171.84;4998802;28;96589;-34
2021/12/17 03:48:50;;;;;;;33.35;4.45;;;;;;;6.59;94.92;104170.06;4999414;28;96792;-34
2021/12/17 03:51:16;;;;;;;22.08;4.28;;;;;;;6.65;94.50;104169.19;4997374;28;100835;-34
2021/12/17 03:53:48;;;;;;;23.35;4.50;;;;;;;6.65;94.37;104172.81;4997353;28;101000;-34
2021/12/17 03:56:14;;;;;;;12.93;3.40;;;;;;;6.58;94.54;104152.09;4996923;28;96824;-34
2021/12/17 03:58:40;;;;;;;19.17;5.57;;;;;;;6.64;94.52;104162.91;4997861;28;96849;-34
2021/12/17 04:01:06;;;;;;;11.10;3.97;;;;;;;6.62;94.38;104153.91;4998683;28;97840;-34
2021/12/17 04:03:31;;;;;;;14.52;4.13;;;;;;;6.74;94.62;104170.16;4997573;28;100882;-34
2021/12/17 04:05:57;;;;;;;16.35;4.05;;;;;;;6.64;94.11;104154.84;4997759;28;96555;-34
2021/12/17 04:08:23;;;;;;;21.20;5.15;;;;;;;6.71;94.58;104169.25;4999211;28;96763;-34
2021/12/17 04:10:51;;;;;;;11.95;4.43;;;;;;;6.77;94.13;104181.00;4997707;28;99230;-34
2021/12/17 04:15:55;;;;;;;13.13;4.22;;;;;;;6.77;94.19;104175.59;4997191;28;96605;-34
2021/12/17 04:18:20;;;;;;;17.05;4.90;;;;;;;6.71;94.31;104166.56;4997597;28;96573;-34
2021/12/17 04:20:46;;;;;;;16.85;4.95;;;;;;;6.78;94.44;104179.19;4996848;28;107565;-34
2021/12/17 04:23:11;;;;;;;14.98;4.45;;;;;;;6.75;94.51;104169.31;4997420;28;119160;-34
2021/12/17 04:25:36;;;;;;;15.20;4.93;;;;;;;6.81;94.41;104169.34;4998280;28;103974;-34
2021/12/17 04:28:02;;;;;;;17.35;5.65;;;;;;;6.79;94.33;104168.44;4997213;28;98883;-34
2021/12/17 04:30:28;;;;;;;15.50;5.32;;;;;;;6.84;94.20;104181.03;4996718;28;100856;-34
2021/12/17 04:32:54;;;;;;;13.85;5.25;;;;;;;6.83;94.25;104177.44;4996862;28;100930;-34
2021/12/17 04:35:20;;;;;;;15.15;5.28;;;;;;;6.82;94.48;104175.66;4998531;28;96455;-34
2021/12/17 04:37:45;;;;;;;19.73;6.22;;;;;;;6.85;94.29;104186.44;4998326;28;96767;-34
2021/12/17 04:40:11;;;;;;;11.80;4.95;;;;;;;6.88;94.48;104182.88;4997325;28;114523;-34
2021/12/17 04:42:49;;;;;;;17.40;5.82;;;;;;;6.84;94.31;104179.25;4998176;28;98233;-34
2021/12/17 04:45:14;;;;;;;14.43;6.38;;;;;;;6.85;94.24;104183.75;4998724;28;96626;-34
2021/12/17 04:58:35;;;;;;;23.02;7.35;;;;;;;6.90;94.42;104164.91;4998145;28;96413;-34
2021/12/17 05:01:03;;;;;;;19.95;6.38;;;;;;;6.85;94.51;104162.19;4997428;28;98038;-34
2021/12/17 05:03:28;;;;;;;16.00;6.55;;;;;;;6.85;94.60;104170.28;4997617;28;97886;-34
2021/12/17 05:05:53;;;;;;;14.32;5.55;;;;;;;6.88;94.81;104174.78;4998230;28;96540;-34
2021/12/17 05:08:21;;;;;;;19.40;5.82;;;;;;;6.90;94.53;104175.69;4997557;28;102022;-34
2021/12/17 05:11:14;;;;;;;16.98;7.82;;;;;;;6.86;94.43;104171.16;4996209;28;101146;-34
2021/12/17 05:19:50;;;;;;;17.25;5.63;;;;;;;6.88;94.56;104172.09;4998603;28;96564;-34
2021/12/17 05:21:48;;;;;;;9.75;3.97;;;;;;;6.88;94.37;104177.47;4999490;28;99336;-34
2021/12/17 05:24:14;;;;;;;11.13;4.63;;;;;;;6.88;94.42;104174.78;4997527;28;97968;-34
2021/12/17 05:26:39;;;;;;;10.18;4.63;;;;;;;6.88;94.31;104180.16;4996408;28;108372;-34
2021/12/17 05:29:04;;;;;;;14.90;6.50;;;;;;;6.89;94.22;104180.19;4996745;28;96750;-34
2021/12/17 05:31:30;;;;;;;10.45;4.78;;;;;;;6.80;94.39;104156.75;4997481;28;97671;-34
2021/12/17 05:33:56;;;;;;;13.57;5.80;;;;;;;6.86;94.44;104160.38;4996912;28;107359;-34
2021/12/17 05:36:21;;;;;;;9.00;3.70;;;;;;;6.88;94.38;104161.31;4996100;28;96643;-34
2021/12/17 05:38:47;;;;;;;11.77;4.38;;;;;;;6.80;94.58;104148.69;4997653;28;96838;-34
2021/12/17 05:41:12;;;;;;;13.65;4.93;;;;;;;6.82;94.13;104154.09;4996569;28;117001;-34
2021/12/17 05:43:38;;;;;;;18.70;4.40;;;;;;;6.81;94.55;104154.97;4996463;28;97809;-34
2021/12/17 05:46:23;;;;;;;8.85;4.18;;;;;;;6.85;94.36;104180.16;4996088;28;96640;-34
2021/12/17 05:48:48;;;;;;;14.07;4.53;;;;;;;6.76;94.74;104168.41;4997506;28;96760;-34
2021/12/17 05:51:14;;;;;;;10.38;4.47;;;;;;;6.82;94.40;104189.13;4995639;28;125478;-34
2021/12/17 05:53:39;;;;;;;13.95;5.03;;;;;;;6.79;94.63;104181.00;4997218;28;103033;-34
2021/12/17 05:56:05;;;;;;;11.50;5.35;;;;;;;6.81;94.58;104180.09;4996134;28;102706;-34
2021/12/17 05:58:30;;;;;;;10.98;5.38;;;;;;;6.85;94.91;104188.25;4997152;28;96803;-34
2021/12/17 06:00:56;;;;;;;12.35;5.05;;;;;;;6.86;94.84;104181.94;4997075;28;97970;-34
2021/12/17 06:03:23;;;;;;;15.55;6.07;;;;;;;6.83;94.79;104179.22;4996604;28;99091;-34
2021/12/17 06:05:48;;;;;;;11.32;5.53;;;;;;;6.82;94.63;104175.66;4996003;28;96603;-34
2021/12/17 06:08:14;;;;;;;14.30;4.55;;;;;;;6.82;94.62;104186.44;4997736;28;97145;-34
2021/12/17 06:10:39;;;;;;;9.52;4.32;;;;;;;6.85;94.45;104194.53;4996837;28;97537;-34
2021/12/17 06:13:05;;;;;;;18.13;4.43;;;;;;;6.80;94.70;104189.09;4995272;28;100949;-34
2021/12/17 06:15:30;;;;;;;11.02;4.32;;;;;;;6.88;94.70;104193.66;4996934;28;96705;-34
2021/12/17 06:17:56;;;;;;;8.27;3.90;;;;;;;6.81;94.19;104196.28;4997291;28;96811;-34
2021/12/17 06:20:23;;;;;;;9.95;3.72;;;;;;;6.88;94.29;104209.81;4996205;28;99765;-34
2021/12/17 06:22:49;;;;;;;9.90;4.40;;;;;;;6.80;94.42;104198.97;4996239;28;97867;-34
2021/12/17 06:25:15;;;;;;;11.32;4.70;;;;;;;6.87;94.80;104208.91;4994040;28;97916;-34
2021/12/17 06:27:41;;;;;;;12.00;3.40;;;;;;;6.88;94.69;104210.72;4997297;28;96672;-34
2021/12/17 06:30:09;;;;;;;5.97;3.45;;;;;;;6.87;94.46;104208.91;4995193;28;101210;-34
2021/12/17 06:32:35;;;;;;;18.95;5.35;;;;;;;6.89;94.63;104222.38;4995256;28;102419;-34
2021/12/17 06:35:01;;;;;;;10.88;4.72;;;;;;;6.88;94.23;104220.59;4997143;28;96533;-34
2021/12/17 06:37:26;;;;;;;12.82;4.35;;;;;;;6.87;94.35;104216.09;4995412;28;96926;-34
2021/12/17 06:39:51;;;;;;;11.27;3.72;;;;;;;6.86;94.39;104214.28;4998776;28;99757;-34
2021/12/17 06:42:17;;;;;;;11.20;4.68;;;;;;;6.88;94.73;104220.59;4999941;28;101491;-34
2021/12/17 06:44:45;;;;;;;11.77;4.55;;;;;;;6.83;94.51;104211.56;4999074;28;96843;-34
2021/12/17 06:47:23;;;;;;;10.02;5.07;;;;;;;6.89;94.46;104222.38;4998810;28;96697;-34
2021/12/17 06:49:56;;;;;;;13.73;3.75;;;;;;;6.89;94.53;104211.59;4998401;28;101055;-34
2021/12/17 07:06:00;;;;;;;10.52;3.30;;;;;;;6.92;94.56;104217.03;4999941;28;96550;-34
2021/12/17 07:11:20;;;;;;;10.32;3.85;;;;;;;6.91;94.59;104217.91;4999758;28;97112;-34
2021/12/17 07:17:12;;;;;;;11.50;5.00;;;;;;;6.87;94.58;104217.00;4999285;28;99403;-34
2021/12/17 07:20:16;;;;;;;13.85;3.95;;;;;;;6.86;94.49;104219.66;5000025;28;96493;-34
2021/12/17 07:22:16;;;;;;;9.88;4.15;;;;;;;6.90;94.63;104224.19;4998975;28;99053;-33
2021/12/17 07:28:01;;;;;;;7.18;3.72;;;;;;;6.95;94.55;104233.22;4997958;28;100759;-34
2021/12/17 07:35:40;;;;;;;9.40;2.90;;;;;;;6.96;94.35;104226.94;4999043;28;97299;-34
2021/12/17 07:40:51;;;;;;;9.60;3.58;;;;;;;6.94;94.35;104221.56;5000042;28;96626;-34
2021/12/17 07:43:25;;;;;;;9.15;3.20;;;;;;;6.95;94.45;104220.66;4997495;28;101053;-34
2021/12/17 07:45:52;;;;;;;11.10;3.42;;;;;;;6.99;94.52;104233.25;4999143;28;97405;-33
2021/12/17 07:48:18;;;;;;;10.43;4.05;;;;;;;7.00;94.47;104237.75;4999189;28;96586;-34
2021/12/17 07:50:43;;;;;;;15.18;4.05;;;;;;;7.03;94.55;104242.25;4999580;28;96759;-34
2021/12/17 07:53:10;;;;;;;13.98;3.42;;;;;;;6.99;94.47;104240.44;4997608;28;101255;-34
2021/12/17 07:55:35;;;;;;;20.30;4.53;;;;;;;6.97;94.42;104239.53;4997982;28;96967;-34
2021/12/17 07:58:00;;;;;;;10.45;3.40;;;;;;;7.01;94.12;104247.66;4998652;28;96524;-34
2021/12/17 08:00:26;;;;;;;10.57;3.35;;;;;;;7.05;94.40;104251.25;4998319;28;112364;-34
2021/12/17 08:02:51;;;;;;;8.30;3.05;;;;;;;7.03;94.31;104239.56;4998723;28;97473;-34
2021/12/17 08:05:18;;;;;;;11.05;3.35;;;;;;;6.99;94.55;104233.25;4997342;28;99577;-34
2021/12/17 08:07:44;;;;;;;9.52;3.28;;;;;;;7.06;94.60;104249.50;4997762;28;96712;-34
2021/12/17 08:10:09;;;;;;;8.25;2.97;;;;;;;7.00;94.16;104244.94;4999143;28;96745;-34
2021/12/17 08:12:35;;;;;;;11.05;3.10;;;;;;;7.06;94.39;104246.81;4998495;28;97853;-34
2021/12/17 08:15:01;;;;;;;11.20;3.75;;;;;;;6.99;94.49;104233.25;4997346;28;98954;-34
2021/12/17 08:17:41;;;;;;;5.13;2.30;;;;;;;7.01;94.86;104244.06;4999053;28;96735;-34
2021/12/17 08:23:52;;;;;;;8.52;2.50;;;;;;;7.07;94.63;104262.97;4998060;28;97111;-34
2021/12/17 08:28:28;;;;;;;8.65;2.85;;;;;;;7.08;94.69;104256.72;4997604;28;96467;-34
2021/12/17 08:30:54;;;;;;;16.45;3.85;;;;;;;7.03;94.40;104242.25;4997449;28;96894;-34
2021/12/17 08:33:21;;;;;;;10.25;3.03;;;;;;;7.10;94.25;104245.91;4998307;28;97414;-34
2021/12/17 08:35:47;;;;;;;6.07;2.42;;;;;;;7.03;94.36;104228.78;4996843;28;100741;-34
2021/12/17 08:38:21;;;;;;;5.95;2.38;;;;;;;7.02;94.66;104235.97;4998479;28;96522;-34
2021/12/17 08:40:49;;;;;;;10.05;2.38;;;;;;;7.06;94.32;104236.91;4998931;28;96856;-34
2021/12/17 08:43:14;;;;;;;7.93;2.53;;;;;;;7.04;94.36;104233.31;4998083;28;97867;-34
2021/12/17 08:45:40;;;;;;;8.20;2.30;;;;;;;7.11;94.60;104254.03;4997153;28;125259;-34
2021/12/17 08:48:05;;;;;;;6.93;2.20;;;;;;;7.13;94.59;104251.34;4997040;28;112435;-34
2021/12/17 08:50:30;;;;;;;10.77;2.78;;;;;;;7.15;94.52;104254.94;4997665;28;103078;-34
2021/12/17 08:52:56;;;;;;;10.60;2.42;;;;;;;7.17;94.47;104247.75;4998020;28;97404;-34
2021/12/17 08:55:21;;;;;;;8.65;2.80;;;;;;;7.13;94.41;104236.06;4996365;28;116920;-34
2021/12/17 08:57:46;;;;;;;8.38;2.67;;;;;;;7.16;94.55;104240.59;4996965;28;96636;-34
2021/12/17 09:00:13;;;;;;;5.60;1.75;;;;;;;7.13;94.47;104230.69;4998368;28;96801;-34
2021/12/17 09:02:41;;;;;;;6.25;2.65;;;;;;;7.18;94.39;104237.00;4995404;28;101896;-34
2021/12/17 09:05:07;;;;;;;5.80;2.08;;;;;;;7.16;94.34;104244.19;4996767;28;100780;-34
2021/12/17 09:07:33;;;;;;;8.23;2.35;;;;;;;7.22;94.51;104249.63;4996742;28;96529;-34
2021/12/17 09:09:58;;;;;;;9.65;3.55;;;;;;;7.22;94.35;104249.63;4998196;28;96749;-34
2021/12/17 09:12:24;;;;;;;10.13;3.10;;;;;;;7.23;94.13;104256.81;4997246;28;97880;-34
2021/12/17 09:14:49;;;;;;;12.80;3.90;;;;;;;7.22;94.36;104252.31;4996198;28;100831;-34
2021/12/17 09:17:15;;;;;;;6.00;2.95;;;;;;;7.28;94.30;104253.25;4998104;28;96569;-33
2021/12/17 09:19:40;;;;;;;8.70;3.00;;;;;;;7.32;94.27;104260.47;4998137;28;96813;-34
2021/12/17 09:22:06;;;;;;;8.45;3.20;;;;;;;7.26;94.29;104245.13;4997481;28;98297;-34
2021/12/17 09:24:32;;;;;;;13.82;4.15;;;;;;;7.31;94.22;104256.84;4997280;28;99194;-33
2021/12/17 09:26:57;;;;;;;10.60;3.17;;;;;;;7.28;94.51;104247.88;4996448;28;96760;-34
2021/12/17 09:29:23;;;;;;;8.27;2.30;;;;;;;7.25;94.30;104240.66;4997867;28;98233;-34
2021/12/17 09:31:48;;;;;;;5.30;2.08;;;;;;;7.34;94.23;104261.38;4997231;28;97958;-34
2021/12/17 09:34:13;;;;;;;10.07;3.67;;;;;;;7.33;94.31;104259.56;4997384;28;97356;-34
2021/12/17 09:36:39;;;;;;;11.07;2.83;;;;;;;7.39;94.30;104268.63;4997144;28;96555;-34
2021/12/17 09:39:04;;;;;;;6.80;3.00;;;;;;;7.40;94.24;104266.81;4996209;28;96916;-34
2021/12/17 09:41:29;;;;;;;11.90;3.33;;;;;;;7.43;94.13;104274.91;4997027;28;98801;-34
2021/12/17 09:43:55;;;;;;;7.25;2.70;;;;;;;7.42;94.10;104263.25;4997244;28;97949;-34
2021/12/17 09:46:21;;;;;;;6.90;2.38;;;;;;;7.47;94.25;104275.84;4997490;28;96559;-34
2021/12/17 09:48:48;;;;;;;7.63;2.70;;;;;;;7.46;94.24;104277.66;4996204;28;96806;-34
2021/12/17 09:51:15;;;;;;;3.70;1.92;;;;;;;7.39;94.00;104265.03;4995577;28;101082;-34
2021/12/17 09:53:41;;;;;;;9.15;2.40;;;;;;;7.47;94.14;104275.84;4997445;28;97324;-34
2021/12/17 09:56:07;;;;;;;9.27;3.15;;;;;;;7.43;94.15;104283.91;4995063;28;97956;-34
2021/12/17 09:58:32;;;;;;;4.00;1.95;;;;;;;7.47;94.05;104286.66;4997518;28;96887;-34
2021/12/17 10:00:58;;;;;;;9.68;3.65;;;;;;;7.51;94.38;104281.28;4994920;28;100786;-34
2021/12/17 10:03:24;;;;;;;5.68;2.17;;;;;;;7.45;94.35;104278.53;4996906;28;97850;-34
2021/12/17 10:05:50;;;;;;;8.07;3.13;;;;;;;7.52;94.28;104284.88;4995894;28;96594;-34
2021/12/17 10:08:19;;;;;;;4.50;2.10;;;;;;;7.53;94.10;104287.59;4997143;28;96896;-34
2021/12/17 10:10:56;;;;;;;10.20;2.33;;;;;;;7.53;94.13;104287.59;4995475;28;100936;-34
2021/12/17 10:13:33;;;;;;;4.32;2.03;;;;;;;7.58;94.08;104293.00;4997355;28;100841;-34
2021/12/17 10:16:07;;;;;;;5.88;2.70;;;;;;;7.54;94.08;104292.09;4999621;28;96616;-34
2021/12/17 10:18:42;;;;;;;6.30;2.03;;;;;;;7.63;94.13;104292.16;4999784;28;96728;-34
2021/12/17 10:21:17;;;;;;;6.22;2.25;;;;;;;7.60;93.83;104293.91;4998971;28;100857;-34
2021/12/17 10:23:43;;;;;;;3.03;1.92;;;;;;;7.51;93.80;104275.91;4998622;28;101544;-34
2021/12/17 10:26:14;;;;;;;8.88;3.08;;;;;;;7.60;93.98;104292.16;5000022;28;96499;-34
2021/12/17 10:29:02;;;;;;;8.63;2.43;;;;;;;7.63;93.86;104304.75;4999309;28;96813;-34
2021/12/17 10:31:29;;;;;;;3.55;1.58;;;;;;;7.64;93.79;104309.25;4998570;28;101392;-34
2021/12/17 10:33:59;;;;;;;3.90;2.20;;;;;;;7.58;93.79;104296.63;4998663;28;100784;-34
2021/12/17 10:36:35;;;;;;;3.88;2.20;;;;;;;7.64;93.69;104309.25;5000532;28;96653;-33
2021/12/17 10:39:11;;;;;;;5.72;2.08;;;;;;;7.65;93.65;104311.03;4999093;28;96637;-34
2021/12/17 10:41:54;;;;;;;4.57;2.40;;;;;;;7.64;93.85;104306.53;4998727;28;100994;-34
2021/12/17 10:44:21;;;;;;;7.05;1.75;;;;;;;7.65;93.79;104313.72;4999606;28;120400;-34
2021/12/17 10:49:53;;;;;;;6.43;1.65;;;;;;;7.55;93.61;104307.38;5009252;28;96920;-34
2021/12/17 10:52:26;;;;;;;4.20;1.30;;;;;;;7.52;93.67;104301.06;4997973;28;101040;-34
2021/12/17 10:55:16;;;;;;;5.22;1.40;;;;;;;7.58;93.58;104318.22;4999686;28;99327;-34
2021/12/17 10:57:45;;;;;;;3.47;1.67;;;;;;;7.62;93.58;104320.00;4998856;28;96678;-34
2021/12/17 11:00:11;;;;;;;4.32;1.25;;;;;;;7.60;93.37;104321.81;5000181;28;96654;-34
2021/12/17 11:02:37;;;;;;;3.65;1.50;;;;;;;7.62;93.37;104321.81;4999517;28;98934;-34
2021/12/17 11:05:13;;;;;;;5.55;1.38;;;;;;;7.54;93.36;104294.78;4998257;28;100571;-34
2021/12/17 11:07:43;;;;;;;1.45;0.73;;;;;;;7.52;93.54;104288.47;4998611;28;96606;-34
2021/12/17 11:10:08;;;;;;;2.33;1.10;;;;;;;7.60;93.35;104307.41;4998954;28;96808;-34
2021/12/17 11:12:36;;;;;;;1.60;0.80;;;;;;;7.60;93.25;104311.03;4999934;28;97313;-34
2021/12/17 11:15:07;;;;;;;1.48;0.63;;;;;;;7.62;93.14;104314.63;4999297;28;98837;-34
2021/12/17 11:17:33;;;;;;;1.83;0.82;;;;;;;7.61;93.23;104306.53;4999319;28;96601;-34
2021/12/17 11:20:03;;;;;;;2.78;1.05;;;;;;;7.62;93.23;104311.91;4999087;28;102368;-34
2021/12/17 11:22:30;;;;;;;2.88;0.95;;;;;;;7.56;93.34;104295.72;4997839;28;101965;-34
2021/12/17 11:24:58;;;;;;;2.30;1.17;;;;;;;7.63;93.20;104310.16;4997178;28;101228;-34
2021/12/17 11:27:24;;;;;;;3.67;0.75;;;;;;;7.57;93.40;104297.50;4999724;28;96647;-34
2021/12/17 11:29:50;;;;;;;3.08;1.30;;;;;;;7.62;93.32;104292.13;5000098;28;96771;-34
2021/12/17 11:32:15;;;;;;;2.40;1.25;;;;;;;7.58;93.26;104285.84;4997641;28;100788;-34
2021/12/17 11:34:42;;;;;;;2.30;1.08;;;;;;;7.57;93.21;104284.00;4999404;28;97885;-34
2021/12/17 11:37:08;;;;;;;2.33;1.02;;;;;;;7.55;93.22;104279.50;4997980;28;97276;-34
2021/12/17 11:39:39;;;;;;;3.20;1.40;;;;;;;7.57;92.92;104289.41;4998083;28;96774;-34
2021/12/17 11:42:29;;;;;;;1.77;1.25;;;;;;;7.58;93.05;104284.91;4997245;28;101120;-34
2021/12/17 11:45:31;;;;;;;4.00;1.35;;;;;;;7.61;93.16;104291.25;4998863;28;97791;-34
2021/12/17 11:47:50;;;;;;;5.13;1.27;;;;;;;7.51;92.78;104289.38;4999915;28;96893;-34
2021/12/17 11:50:17;;;;;;;5.55;2.13;;;;;;;7.57;92.98;104293.91;4999485;28;96788;-34
2021/12/17 11:52:48;;;;;;;4.93;2.10;;;;;;;7.47;92.90;104262.38;4997433;28;100785;-34
2021/12/17 11:55:34;;;;;;;4.22;1.92;;;;;;;7.57;93.04;104278.63;4996994;28;102503;-34
2021/12/17 11:58:04;;;;;;;3.97;2.03;;;;;;;7.55;92.87;104283.09;4999308;28;96600;-34
2021/12/17 12:00:50;;;;;;;3.85;1.83;;;;;;;7.53;92.95;104282.22;4998300;28;96718;-34
2021/12/17 12:03:15;;;;;;;2.95;1.33;;;;;;;7.51;92.78;104284.00;4998429;28;97922;-34
2021/12/17 12:05:43;;;;;;;6.30;2.28;;;;;;;7.52;92.85;104284.88;4998686;28;97381;-34
2021/12/17 12:08:28;;;;;;;2.15;1.20;;;;;;;7.43;92.62;104274.91;4997188;28;96712;-34
2021/12/17 12:11:02;;;;;;;4.38;1.90;;;;;;;7.49;93.06;104283.06;4998993;28;96811;-34
2021/12/17 12:13:34;;;;;;;7.03;2.08;;;;;;;7.51;93.01;104284.00;4997222;28;100854;-34
2021/12/17 12:16:08;;;;;;;9.57;3.22;;;;;;;7.49;93.05;104277.69;4998441;28;98665;-34
2021/12/17 12:18:53;;;;;;;23.35;6.93;;;;;;;7.51;92.99;104284.00;4997416;28;96605;-34
2021/12/17 12:21:24;;;;;;;14.25;4.70;;;;;;;7.41;92.96;104276.69;4997469;28;97003;-34
2021/12/17 12:24:13;;;;;;;12.70;4.20;;;;;;;7.44;92.93;104279.44;4996930;28;101211;-34
2021/12/17 12:26:46;;;;;;;10.27;3.47;;;;;;;7.45;92.94;104281.22;4998650;28;97856;-34
2021/12/17 12:29:24;;;;;;;7.82;3.70;;;;;;;7.43;93.02;104280.31;4998952;28;96582;-34
2021/12/17 12:32:11;;;;;;;7.10;3.58;;;;;;;7.48;92.87;104289.34;4997562;28;96754;-34
2021/12/17 12:34:40;;;;;;;9.93;3.92;;;;;;;7.49;92.99;104288.47;4996295;28;100895;-34
2021/12/17 12:37:21;;;;;;;7.85;4.15;;;;;;;7.48;93.09;104294.72;4995199;28;100724;-34
2021/12/17 12:39:48;;;;;;;7.22;3.63;;;;;;;7.48;92.99;104292.03;4997458;28;96530;-34
2021/12/17 12:42:19;;;;;;;9.50;3.83;;;;;;;7.51;93.00;104299.25;4998826;28;96757;-34
2021/12/17 12:44:44;;;;;;;9.30;4.20;;;;;;;7.48;93.03;104292.03;4998089;28;97964;-34
2021/12/17 12:47:26;;;;;;;7.78;3.55;;;;;;;7.49;93.06;104291.16;4997803;28;99147;-34
2021/12/17 12:50:04;;;;;;;5.33;2.43;;;;;;;7.50;93.22;104295.66;4997139;28;96851;-34
2021/12/17 12:52:29;;;;;;;4.78;2.33;;;;;;;7.48;93.22;104289.34;4997422;28;96795;-34
2021/12/17 12:55:05;;;;;;;5.65;2.97;;;;;;;7.42;93.20;104292.00;4997620;28;98133;-34
2021/12/17 12:57:47;;;;;;;8.15;4.25;;;;;;;7.42;93.07;104283.91;4996363;28;101227;-34
2021/12/17 13:00:16;;;;;;;8.63;3.08;;;;;;;7.40;92.90;104280.31;4996384;28;96566;-34
2021/12/17 13:02:43;;;;;;;7.82;2.85;;;;;;;7.39;93.02;104267.72;4996859;28;96831;-34
2021/12/17 13:05:09;;;;;;;6.10;2.85;;;;;;;7.40;92.98;104259.63;4998024;28;97506;-34
2021/12/17 13:07:38;;;;;;;5.43;3.13;;;;;;;7.34;93.04;104245.19;4996277;28;100831;-34
2021/12/17 13:10:09;;;;;;;10.77;3.35;;;;;;;7.47;93.12;104257.88;4996151;28;101076;-34
2021/12/17 13:12:36;;;;;;;5.78;2.97;;;;;;;7.46;93.12;104261.47;4997733;28;96834;-34
2021/12/17 13:15:17;;;;;;;5.97;3.00;;;;;;;7.45;93.02;104252.47;4996121;28;101499;-34
2021/12/17 13:20:28;;;;;;;3.67;1.90;;;;;;;7.40;92.92;104251.53;4998076;28;97942;-34
2021/12/17 13:23:27;;;;;;;10.90;3.38;;;;;;;7.45;92.95;104256.97;4998304;28;96567;-34
2021/12/17 13:26:10;;;;;;;5.15;2.40;;;;;;;7.46;93.01;104261.47;4997158;28;97926;-34
2021/12/17 13:28:53;;;;;;;7.90;3.97;;;;;;;7.41;92.98;104241.63;4996417;28;101244;-34
2021/12/17 13:31:35;;;;;;;6.60;3.28;;;;;;;7.47;92.95;104248.88;4996353;28;96822;-34
2021/12/17 13:34:01;;;;;;;5.75;2.60;;;;;;;7.43;92.95;104245.25;4996279;28;96839;-34
2021/12/17 13:36:26;;;;;;;4.07;2.15;;;;;;;7.41;93.01;104238.94;4995992;28;101125;-34
2021/12/17 13:38:57;;;;;;;4.18;2.25;;;;;;;7.43;93.28;104242.56;4996940;28;99127;-34
2021/12/17 13:41:34;;;;;;;3.10;1.83;;;;;;;7.42;92.93;104246.16;4997876;28;96676;-34
2021/12/17 13:43:59;;;;;;;1.75;1.02;;;;;;;7.41;93.04;104242.56;4996699;28;96698;-34
2021/12/17 13:46:27;;;;;;;3.55;1.92;;;;;;;7.38;93.08;104247.03;4996716;28;112933;-34
2021/12/17 13:48:52;;;;;;;3.38;1.50;;;;;;;7.36;93.09;104256.91;4995248;28;101172;-34
2021/12/17 13:51:18;;;;;;;4.40;1.83;;;;;;;7.38;93.19;104255.13;4997170;28;96571;-34
2021/12/17 13:53:56;;;;;;;5.03;1.55;;;;;;;7.34;92.98;104253.28;4997611;28;96794;-34
2021/12/17 13:56:21;;;;;;;3.92;1.95;;;;;;;7.38;93.15;104250.63;4995764;28;97921;-34
2021/12/17 13:58:47;;;;;;;4.82;1.98;;;;;;;7.35;93.20;104242.50;4997309;28;96739;-34
2021/12/17 14:01:21;;;;;;;7.70;2.90;;;;;;;7.44;93.20;104258.75;4997189;28;96759;-34
2021/12/17 14:03:46;;;;;;;4.95;2.38;;;;;;;7.42;93.04;104256.94;4996072;28;96674;-34
2021/12/17 14:06:22;;;;;;;2.78;1.48;;;;;;;7.36;92.95;104240.72;4997227;28;97496;-34
2021/12/17 14:08:48;;;;;;;3.40;1.50;;;;;;;7.35;93.35;104242.50;4997381;28;97725;-34